Hong Xiang 2 — BYBA — position and weather

sailwx.info

Track history (hours):
 
Tides and Currents Weather Stations Pressure Air Temp Water Temp Dewpoint Dewpoint Depression Visibility Wind Speed Wind Dir Waves Ship Positions

Hong Xiang 2

Last reported at 2014-Aug-22 09:32 UTC. Time now 2014-Aug-22 09:54 UTC.
Position N 22°20' E 113°48'.

Length 96 m; draft 4.8 m.

Type: Ship (hazmat cat A). MMSI: 413413000.

Date/timePositionNaut miles runAvg speedWind from/ knotsBaromVisibWave heightAir tempDewpointWater temp
2014-Aug-22 09:32N 22°20' E 113°48'3110.2
2014-Aug-22 06:31N 22°49' E 113°36'6 6.3
2014-Aug-22 05:33N 22°55' E 113°34'0 0.0
2014-Aug-22 04:19N 22°55' E 113°34'0 0.1
2014-Aug-22 03:13N 22°55' E 113°34'0 0.1
2014-Aug-22 02:31N 22°55' E 113°34'0 0.0
2014-Aug-22 01:31N 22°55' E 113°34'0 0.3
2014-Aug-22 00:34N 22°55' E 113°34'2 0.2
2014-Aug-21 15:26N 22°57' E 113°33'0 0.0
2014-Aug-21 13:27N 22°57' E 113°33'0 0.0
2014-Aug-21 10:33N 22°57' E 113°33'0 0.0
2014-Aug-21 09:31N 22°57' E 113°33'0 0.0
2014-Aug-21 08:33N 22°57' E 113°33'5 4.7
2014-Aug-21 07:31N 22°52' E 113°34'8 7.5
2014-Aug-21 06:30N 22°46' E 113°39'16 7.5
2014-Aug-21 04:24N 22°31' E 113°44'7 7.8
2014-Aug-21 03:33N 22°25' E 113°46'8 7.7
2014-Aug-21 02:32N 22°17' E 113°48'6 5.6
2014-Aug-21 01:33N 22°12' E 113°50'170 5.5
2014-Aug-19 18:21N 23°07' E 116°44'7 9.5
2014-Aug-19 17:33N 23°13' E 116°50'39 9.6
2014-Aug-19 13:33N 23°32' E 117°26'9 9.1
2014-Aug-19 12:33N 23°38' E 117°34'9 9.1
2014-Aug-19 11:33N 23°43' E 117°42'11 8.6
2014-Aug-19 10:17N 23°50' E 117°51'6 8.0
2014-Aug-19 09:33N 23°54' E 117°56'8 7.6
2014-Aug-19 08:31N 23°59' E 118°03'57 6.3
2014-Aug-18 23:33N 24°35' E 118°50'8 7.8
2014-Aug-18 22:33N 24°41' E 118°57'9 8.8
2014-Aug-18 21:33N 24°46' E 119°04'334 9.0
2014-Aug-17 08:30N 29°31' E 122°21'9 8.3
2014-Aug-17 07:27N 29°39' E 122°24'7 7.8
2014-Aug-17 06:33N 29°46' E 122°27'18 8.7
2014-Aug-17 04:27N 30°03' E 122°34'1210.8
2014-Aug-17 03:19N 30°15' E 122°37'810.7
2014-Aug-17 02:32N 30°23' E 122°37'1010.6
2014-Aug-17 01:33N 30°33' E 122°38'1211.8
2014-Aug-17 00:33N 30°45' E 122°36'331 9.2
2014-Aug-15 12:33N 35°59' E 120°30'  
Track history (hours):
 
Tides and Currents Weather Stations Pressure Air Temp Water Temp Dewpoint Dewpoint Depression Visibility Wind Speed Wind Dir Waves Ship Positions

Hong Xiang 2

Last reported at 2014-Aug-22 09:32 UTC. Time now 2014-Aug-22 09:54 UTC.
Position N 22°20' E 113°48'.

Length 96 m; draft 4.8 m.

Type: Ship (hazmat cat A). MMSI: 413413000.

Date/timePositionNaut miles runAvg speedWind from/ knotsBaromVisibWave heightAir tempDewpointWater temp
2014-Aug-22 09:32N 22°20' E 113°48'3110.2
2014-Aug-22 06:31N 22°49' E 113°36'6 6.3
2014-Aug-22 05:33N 22°55' E 113°34'0 0.0
2014-Aug-22 04:19N 22°55' E 113°34'0 0.1
2014-Aug-22 03:13N 22°55' E 113°34'0 0.1
2014-Aug-22 02:31N 22°55' E 113°34'0 0.0
2014-Aug-22 01:31N 22°55' E 113°34'0 0.3
2014-Aug-22 00:34N 22°55' E 113°34'2 0.2
2014-Aug-21 15:26N 22°57' E 113°33'0 0.0
2014-Aug-21 13:27N 22°57' E 113°33'0 0.0
2014-Aug-21 10:33N 22°57' E 113°33'0 0.0
2014-Aug-21 09:31N 22°57' E 113°33'0 0.0
2014-Aug-21 08:33N 22°57' E 113°33'5 4.7
2014-Aug-21 07:31N 22°52' E 113°34'8 7.5
2014-Aug-21 06:30N 22°46' E 113°39'16 7.5
2014-Aug-21 04:24N 22°31' E 113°44'7 7.8
2014-Aug-21 03:33N 22°25' E 113°46'8 7.7
2014-Aug-21 02:32N 22°17' E 113°48'6 5.6
2014-Aug-21 01:33N 22°12' E 113°50'170 5.5
2014-Aug-19 18:21N 23°07' E 116°44'7 9.5
2014-Aug-19 17:33N 23°13' E 116°50'39 9.6
2014-Aug-19 13:33N 23°32' E 117°26'9 9.1
2014-Aug-19 12:33N 23°38' E 117°34'9 9.1
2014-Aug-19 11:33N 23°43' E 117°42'11 8.6
2014-Aug-19 10:17N 23°50' E 117°51'6 8.0
2014-Aug-19 09:33N 23°54' E 117°56'8 7.6
2014-Aug-19 08:31N 23°59' E 118°03'57 6.3
2014-Aug-18 23:33N 24°35' E 118°50'8 7.8
2014-Aug-18 22:33N 24°41' E 118°57'9 8.8
2014-Aug-18 21:33N 24°46' E 119°04'334 9.0
2014-Aug-17 08:30N 29°31' E 122°21'9 8.3
2014-Aug-17 07:27N 29°39' E 122°24'7 7.8
2014-Aug-17 06:33N 29°46' E 122°27'18 8.7
2014-Aug-17 04:27N 30°03' E 122°34'1210.8
2014-Aug-17 03:19N 30°15' E 122°37'810.7
2014-Aug-17 02:32N 30°23' E 122°37'1010.6
2014-Aug-17 01:33N 30°33' E 122°38'1211.8
2014-Aug-17 00:33N 30°45' E 122°36'331 9.2
2014-Aug-15 12:33N 35°59' E 120°30'  

Dump ship's entire track history